Time;durP1;ratioP1;P1;durP2;ratioP2;P2;SDS_P1;SDS_P2;PMS_P1;PMS_P2;Temp;Humidity;BMP_temperature;BMP_pressure;BME280_temperature;BME280_humidity;BME280_pressure;Samples;Min_cycle;Max_cycle;Signal;HPM_P1;HPM_P2
2023/01/25 00:01:53;;;;;;;22.30;13.57;;;2.80;99.90;;;;;;5063957;28;20204;-75
2023/01/25 00:04:20;;;;;;;25.47;13.70;;;2.90;99.90;;;;;;5068941;28;20201;-75
2023/01/25 00:06:46;;;;;;;23.13;12.97;;;2.90;99.90;;;;;;5069797;28;20215;-75
2023/01/25 00:09:12;;;;;;;25.97;14.30;;;2.80;99.90;;;;;;5072283;28;20676;-75
2023/01/25 00:11:38;;;;;;;22.67;13.63;;;2.80;99.90;;;;;;5071610;28;20235;-74
2023/01/25 00:14:04;;;;;;;20.77;12.87;;;2.80;99.90;;;;;;5066176;28;20203;-75
2023/01/25 00:16:31;;;;;;;21.37;12.67;;;2.80;99.90;;;;;;5070673;28;20210;-75
2023/01/25 00:18:56;;;;;;;24.23;12.83;;;2.80;99.90;;;;;;5066781;28;20279;-74
2023/01/25 00:21:24;;;;;;;22.00;12.47;;;2.80;99.90;;;;;;5063509;28;20218;-74
2023/01/25 00:23:50;;;;;;;22.17;11.93;;;2.80;99.90;;;;;;5066733;28;20266;-75
2023/01/25 00:26:16;;;;;;;21.87;12.50;;;2.70;99.90;;;;;;5060446;28;20203;-74
2023/01/25 00:28:41;;;;;;;20.47;12.30;;;2.70;99.90;;;;;;5067311;28;20215;-75
2023/01/25 00:31:14;;;;;;;23.33;13.47;;;2.70;99.90;;;;;;5066899;28;20231;-72
2023/01/25 00:33:50;;;;;;;24.00;13.37;;;2.70;99.90;;;;;;5063467;28;20704;-74
2023/01/25 00:36:35;;;;;;;24.17;12.87;;;2.80;99.90;;;;;;5067410;28;20210;-74
2023/01/25 00:39:01;;;;;;;24.10;13.30;;;2.80;99.90;;;;;;5061005;28;20615;-75
2023/01/25 00:41:27;;;;;;;25.57;13.77;;;2.80;99.90;;;;;;5063998;28;20237;-74
2023/01/25 00:43:52;;;;;;;20.33;12.33;;;2.80;99.90;;;;;;5068889;28;20575;-75
2023/01/25 00:46:18;;;;;;;22.73;12.73;;;2.80;99.90;;;;;;5065418;28;20212;-75
2023/01/25 00:48:44;;;;;;;21.10;12.60;;;2.80;99.90;;;;;;5067252;28;20596;-75
2023/01/25 00:51:10;;;;;;;26.17;12.93;;;2.80;99.90;;;;;;5066215;28;20224;-74
2023/01/25 00:53:36;;;;;;;25.47;13.13;;;2.80;99.90;;;;;;5065465;28;20171;-75
2023/01/25 00:56:02;;;;;;;27.67;13.57;;;2.80;99.90;;;;;;5066061;28;20271;-75
2023/01/25 00:58:28;;;;;;;23.93;13.33;;;2.80;99.90;;;;;;5066182;28;20220;-74
2023/01/25 01:00:55;;;;;;;25.07;13.80;;;2.80;99.90;;;;;;5061126;28;20739;-72
2023/01/25 01:03:21;;;;;;;25.07;13.73;;;2.80;99.90;;;;;;5067369;28;20211;-74
2023/01/25 01:05:46;;;;;;;25.53;13.90;;;2.80;99.90;;;;;;5066429;28;20232;-75
2023/01/25 01:08:13;;;;;;;20.10;12.23;;;2.90;99.90;;;;;;5063676;28;20679;-74
2023/01/25 01:10:39;;;;;;;25.07;12.80;;;2.90;99.90;;;;;;5066679;28;20209;-74
2023/01/25 01:13:06;;;;;;;23.80;12.87;;;2.90;99.90;;;;;;5061671;28;20293;-74
2023/01/25 01:19:49;;;;;;;25.13;13.17;;;2.80;99.90;;;;;;5060056;28;20344;-72
2023/01/25 01:22:14;;;;;;;22.03;12.63;;;2.90;99.90;;;;;;5056720;28;20221;-74
2023/01/25 01:24:41;;;;;;;25.87;13.63;;;2.90;99.90;;;;;;5067017;28;20205;-72
2023/01/25 01:27:06;;;;;;;26.10;13.57;;;2.90;99.90;;;;;;5060893;28;20198;-75
2023/01/25 01:29:32;;;;;;;25.03;13.63;;;2.90;99.90;;;;;;5068871;28;20169;-75
2023/01/25 01:31:58;;;;;;;22.53;13.23;;;2.90;99.90;;;;;;5066807;28;20396;-74
2023/01/25 01:34:24;;;;;;;26.33;11.97;;;2.80;99.90;;;;;;5060585;28;20205;-74
2023/01/25 01:36:50;;;;;;;22.80;13.00;;;2.80;99.90;;;;;;5068089;28;20209;-74
2023/01/25 01:39:15;;;;;;;23.80;13.20;;;2.90;99.90;;;;;;5062653;28;20222;-75
2023/01/25 01:41:41;;;;;;;20.70;11.97;;;2.90;99.90;;;;;;5063671;28;20263;-74
2023/01/25 01:44:19;;;;;;;23.50;12.97;;;2.90;99.90;;;;;;5066175;28;20624;-72
2023/01/25 01:46:51;;;;;;;24.87;12.70;;;2.90;99.90;;;;;;5078481;28;20221;-75
2023/01/25 01:49:27;;;;;;;23.23;12.20;;;2.90;99.90;;;;;;5064625;28;20226;-75
2023/01/25 01:52:01;;;;;;;23.23;12.73;;;2.90;99.90;;;;;;5063741;28;20219;-73
2023/01/25 01:54:45;;;;;;;21.27;12.43;;;2.80;99.90;;;;;;5067867;28;20761;-74
2023/01/25 01:57:42;;;;;;;22.43;13.23;;;2.80;99.90;;;;;;5061486;28;20229;-74
2023/01/25 02:00:12;;;;;;;23.57;12.93;;;2.80;99.90;;;;;;5047670;28;20211;-73
2023/01/25 02:02:38;;;;;;;20.57;12.83;;;2.70;99.90;;;;;;5065477;28;20215;-74
2023/01/25 02:05:07;;;;;;;23.27;13.03;;;2.70;99.90;;;;;;5064612;28;20212;-71
2023/01/25 02:07:36;;;;;;;22.23;12.90;;;2.80;99.90;;;;;;5062197;28;20209;-73
2023/01/25 02:10:04;;;;;;;20.63;12.63;;;2.70;99.90;;;;;;5088230;22;20235;-72
2023/01/25 02:12:31;;;;;;;21.40;12.23;;;2.70;99.90;;;;;;5058843;28;20729;-74
2023/01/25 02:14:56;;;;;;;22.83;12.10;;;2.70;99.90;;;;;;5073902;28;20198;-74
2023/01/25 02:17:27;;;;;;;22.20;12.07;;;2.70;99.90;;;;;;5071710;28;20201;-74
2023/01/25 02:19:57;;;;;;;21.33;12.53;;;2.80;99.90;;;;;;5069349;28;20270;-72
2023/01/25 02:22:30;;;;;;;25.80;13.13;;;2.80;99.90;;;;;;5056105;28;20209;-74
2023/01/25 02:25:11;;;;;;;22.80;13.50;;;2.80;99.90;;;;;;5049171;28;20655;-75
2023/01/25 02:27:45;;;;;;;23.07;12.80;;;2.80;99.90;;;;;;5066023;28;20284;-72
2023/01/25 02:30:11;;;;;;;25.97;12.90;;;2.80;99.90;;;;;;5061096;28;20221;-72
2023/01/25 02:32:37;;;;;;;25.43;13.83;;;2.80;99.90;;;;;;5062569;28;20250;-72
2023/01/25 02:35:03;;;;;;;22.87;13.03;;;2.80;99.90;;;;;;5065662;28;20205;-72
2023/01/25 02:37:29;;;;;;;23.90;13.87;;;2.80;99.90;;;;;;5045658;28;20214;-71
2023/01/25 02:39:55;;;;;;;26.20;13.63;;;2.80;99.90;;;;;;5044800;28;20232;-72
2023/01/25 02:42:20;;;;;;;23.63;12.67;;;2.70;99.90;;;;;;5062218;28;20217;-73
2023/01/25 02:44:47;;;;;;;25.43;12.37;;;2.70;99.90;;;;;;5050376;28;20182;-72
2023/01/25 02:47:13;;;;;;;26.23;13.20;;;2.70;99.90;;;;;;5062037;28;20319;-72
2023/01/25 02:49:38;;;;;;;22.33;13.27;;;2.70;99.90;;;;;;5045679;28;20588;-70
2023/01/25 02:52:04;;;;;;;21.33;12.80;;;2.70;99.90;;;;;;5041902;28;20208;-72
2023/01/25 02:54:30;;;;;;;22.53;13.47;;;2.70;99.90;;;;;;5060659;28;20329;-72
2023/01/25 02:56:56;;;;;;;23.03;13.50;;;2.70;99.90;;;;;;5067049;28;20178;-72
2023/01/25 02:59:22;;;;;;;25.67;13.43;;;2.70;99.90;;;;;;5045730;28;20290;-72
2023/01/25 03:01:48;;;;;;;24.10;13.90;;;2.80;99.90;;;;;;5062456;28;20205;-71
2023/01/25 03:04:14;;;;;;;23.00;13.27;;;2.80;99.90;;;;;;5037940;28;20321;-72
2023/01/25 03:06:40;;;;;;;21.67;12.70;;;2.80;99.90;;;;;;5063866;28;20208;-73
2023/01/25 03:09:09;;;;;;;22.83;12.97;;;2.70;99.90;;;;;;5061440;28;20173;-72
2023/01/25 03:11:34;;;;;;;25.13;13.40;;;2.80;99.90;;;;;;5062161;28;20274;-72
2023/01/25 03:14:00;;;;;;;24.70;13.43;;;2.80;99.90;;;;;;5062992;28;20209;-73
2023/01/25 03:16:26;;;;;;;24.90;13.77;;;2.80;99.90;;;;;;5060708;28;20213;-72
2023/01/25 03:18:53;;;;;;;21.13;12.73;;;2.80;99.90;;;;;;5048924;28;20295;-71
2023/01/25 03:21:20;;;;;;;23.63;13.00;;;2.80;99.90;;;;;;5057674;28;20257;-73
2023/01/25 03:23:47;;;;;;;21.67;13.37;;;2.70;99.90;;;;;;5063187;28;20262;-72
2023/01/25 03:26:16;;;;;;;25.07;13.40;;;2.80;99.90;;;;;;5061765;28;20599;-72
2023/01/25 03:28:42;;;;;;;26.60;13.43;;;2.80;99.90;;;;;;5060599;28;20228;-70
2023/01/25 03:31:10;;;;;;;23.00;13.00;;;2.80;99.90;;;;;;5063611;28;20206;-72
2023/01/25 03:33:36;;;;;;;23.53;13.33;;;2.80;99.90;;;;;;5044506;28;20217;-72
2023/01/25 03:36:02;;;;;;;25.17;13.90;;;2.80;99.90;;;;;;5043517;28;20173;-72
2023/01/25 03:38:28;;;;;;;19.60;12.43;;;2.80;99.90;;;;;;5043166;28;20199;-74
2023/01/25 03:40:54;;;;;;;23.77;13.60;;;2.80;99.90;;;;;;5063554;28;20211;-71
2023/01/25 03:43:20;;;;;;;26.23;14.33;;;2.80;99.90;;;;;;5060438;28;20574;-72
2023/01/25 03:45:51;;;;;;;25.07;14.60;;;2.80;99.90;;;;;;5062894;28;20197;-72
2023/01/25 03:48:16;;;;;;;22.23;13.47;;;2.80;99.90;;;;;;5060388;28;20203;-74
2023/01/25 03:50:42;;;;;;;21.80;13.17;;;2.80;99.90;;;;;;5061821;28;20238;-74
2023/01/25 03:53:18;;;;;;;25.53;13.07;;;2.80;99.90;;;;;;5062106;28;20214;-74
2023/01/25 03:55:44;;;;;;;23.60;13.57;;;2.80;99.90;;;;;;5042935;28;20753;-71
2023/01/25 03:58:10;;;;;;;24.67;14.03;;;2.70;99.90;;;;;;5045060;28;20260;-74
2023/01/25 04:00:35;;;;;;;22.77;12.90;;;2.70;99.90;;;;;;5041740;28;20210;-74
2023/01/25 04:03:01;;;;;;;22.57;13.90;;;2.70;99.90;;;;;;5063196;28;20231;-74
2023/01/25 04:05:26;;;;;;;25.47;14.37;;;2.70;99.90;;;;;;5040972;28;20175;-72
2023/01/25 04:07:52;;;;;;;23.83;14.23;;;2.70;99.90;;;;;;5042534;28;20618;-74
2023/01/25 04:10:18;;;;;;;26.37;14.30;;;2.70;99.90;;;;;;5061389;28;20296;-75
2023/01/25 04:12:43;;;;;;;25.60;14.63;;;2.80;99.90;;;;;;5062085;28;20747;-75
2023/01/25 04:15:09;;;;;;;22.90;12.67;;;2.80;99.90;;;;;;5060538;28;20233;-74
2023/01/25 04:17:35;;;;;;;26.33;15.20;;;2.80;99.90;;;;;;5060649;28;20228;-72
2023/01/25 04:20:00;;;;;;;23.90;13.57;;;2.80;99.90;;;;;;5065462;28;20231;-74
2023/01/25 04:22:26;;;;;;;27.17;14.73;;;2.80;99.90;;;;;;5059030;28;20244;-74
2023/01/25 04:24:51;;;;;;;22.97;14.20;;;2.90;99.90;;;;;;5062294;28;20203;-74
2023/01/25 04:27:17;;;;;;;25.53;14.37;;;2.90;99.90;;;;;;5060066;28;20226;-74
2023/01/25 04:29:43;;;;;;;22.03;13.23;;;2.90;99.90;;;;;;5060578;28;20289;-74
2023/01/25 04:32:08;;;;;;;24.97;14.67;;;2.90;99.90;;;;;;5044577;28;20257;-75
2023/01/25 04:34:34;;;;;;;24.50;14.23;;;2.90;99.90;;;;;;5041275;28;20202;-74
2023/01/25 04:36:59;;;;;;;26.17;15.20;;;2.90;99.90;;;;;;5062293;28;20200;-75
2023/01/25 04:39:25;;;;;;;27.47;14.40;;;2.90;99.90;;;;;;5059472;28;20220;-75
2023/01/25 04:41:50;;;;;;;27.77;16.00;;;2.90;99.90;;;;;;5059108;28;20189;-75
2023/01/25 04:44:16;;;;;;;27.67;14.23;;;2.90;99.90;;;;;;5060607;28;20239;-75
2023/01/25 04:46:42;;;;;;;25.77;14.30;;;2.90;99.90;;;;;;5061463;28;20218;-74
2023/01/25 04:49:07;;;;;;;27.20;14.20;;;2.90;99.90;;;;;;5059853;28;20683;-75
2023/01/25 04:51:33;;;;;;;27.73;13.43;;;2.90;99.90;;;;;;5059245;28;20313;-75
2023/01/25 04:53:58;;;;;;;26.97;14.37;;;2.90;99.90;;;;;;5062140;28;20178;-75
2023/01/25 04:56:24;;;;;;;20.40;11.40;;;2.90;99.90;;;;;;5041400;28;20179;-74
2023/01/25 04:58:50;;;;;;;24.70;13.03;;;3.00;99.90;;;;;;5043575;28;20288;-75
2023/01/25 05:01:15;;;;;;;23.40;14.70;;;3.00;99.90;;;;;;5058609;28;20924;-75
2023/01/25 05:03:41;;;;;;;20.13;11.73;;;3.00;99.90;;;;;;5041013;28;20217;-75
2023/01/25 05:06:07;;;;;;;17.93;12.47;;;3.00;99.90;;;;;;5057808;28;20648;-75
2023/01/25 05:08:32;;;;;;;20.83;12.67;;;3.00;99.90;;;;;;5058972;28;20237;-74
2023/01/25 05:10:58;;;;;;;17.13;10.87;;;3.00;99.90;;;;;;5061449;28;20230;-75
2023/01/25 05:13:23;;;;;;;20.10;10.40;;;3.10;99.90;;;;;;5040958;28;20210;-74
2023/01/25 05:15:49;;;;;;;19.70;11.57;;;3.00;99.90;;;;;;5041421;28;20670;-75
2023/01/25 05:18:15;;;;;;;17.67;10.37;;;3.00;99.90;;;;;;5062865;28;20310;-74
2023/01/25 05:20:40;;;;;;;18.47;10.97;;;3.00;99.90;;;;;;5059131;28;20241;-73
2023/01/25 05:23:06;;;;;;;21.20;11.80;;;3.00;99.90;;;;;;5061609;28;20557;-73
2023/01/25 05:28:16;;;;;;;22.63;11.73;;;3.00;99.90;;;;;;5063249;28;20209;-75
2023/01/25 05:30:41;;;;;;;21.93;11.93;;;3.00;99.90;;;;;;5065964;28;20221;-75
2023/01/25 05:33:07;;;;;;;22.37;11.87;;;3.00;99.90;;;;;;5046800;28;20224;-75
2023/01/25 05:35:32;;;;;;;19.83;10.63;;;3.10;99.90;;;;;;5065531;28;20181;-73
2023/01/25 05:37:58;;;;;;;16.93;9.87;;;3.00;99.90;;;;;;5066524;28;20213;-74
2023/01/25 05:40:25;;;;;;;16.83;10.60;;;2.90;99.90;;;;;;5060187;28;20715;-74
2023/01/25 05:42:58;;;;;;;19.33;11.50;;;3.00;99.90;;;;;;5050430;28;20212;-76
2023/01/25 05:45:24;;;;;;;18.47;10.83;;;3.00;99.90;;;;;;5064803;28;20623;-75
2023/01/25 05:47:54;;;;;;;18.63;10.50;;;3.10;99.90;;;;;;5061393;28;20671;-74
2023/01/25 05:50:22;;;;;;;17.90;10.03;;;3.10;99.90;;;;;;5066927;28;20226;-75
2023/01/25 05:52:47;;;;;;;14.13;9.33;;;3.10;99.90;;;;;;5044586;28;20707;-75
2023/01/25 05:55:13;;;;;;;15.13;9.60;;;3.00;99.90;;;;;;5062340;28;20251;-75
2023/01/25 05:57:39;;;;;;;16.87;9.80;;;3.00;99.90;;;;;;5065029;28;20309;-75
2023/01/25 06:00:05;;;;;;;17.57;9.63;;;2.90;99.90;;;;;;5062594;28;20236;-75
2023/01/25 06:02:31;;;;;;;15.93;9.70;;;2.80;99.90;;;;;;5066063;28;20670;-75
2023/01/25 06:04:57;;;;;;;15.07;8.97;;;2.80;99.90;;;;;;5047821;28;20254;-74
2023/01/25 06:07:23;;;;;;;17.50;10.10;;;2.70;99.90;;;;;;5059355;28;20225;-74
2023/01/25 06:09:49;;;;;;;19.27;10.57;;;2.70;99.90;;;;;;5066862;28;20701;-74
2023/01/25 06:12:15;;;;;;;16.30;9.80;;;2.70;99.90;;;;;;5063793;28;20207;-75
2023/01/25 06:14:41;;;;;;;20.83;11.90;;;2.70;99.90;;;;;;5061194;28;20271;-75
2023/01/25 06:17:07;;;;;;;21.77;10.27;;;2.70;99.90;;;;;;5066783;28;20236;-75
2023/01/25 06:19:32;;;;;;;16.07;9.87;;;2.70;99.90;;;;;;5063627;28;20308;-75
2023/01/25 06:21:58;;;;;;;20.07;10.17;;;2.80;99.90;;;;;;5062038;28;20685;-73
2023/01/25 06:24:24;;;;;;;19.73;9.57;;;2.80;99.90;;;;;;5064773;28;20225;-75
2023/01/25 06:26:49;;;;;;;20.17;11.97;;;2.80;99.90;;;;;;5045490;28;20201;-75
2023/01/25 06:29:15;;;;;;;17.37;9.90;;;2.80;99.90;;;;;;5065132;28;20291;-75
2023/01/25 06:31:40;;;;;;;18.50;10.50;;;2.90;99.90;;;;;;5063405;28;20261;-74
2023/01/25 06:34:07;;;;;;;18.20;10.03;;;2.90;99.90;;;;;;5064930;28;20206;-75
2023/01/25 06:36:33;;;;;;;19.50;10.97;;;2.90;99.90;;;;;;5068791;28;20211;-74
2023/01/25 06:38:59;;;;;;;18.40;11.07;;;2.90;99.90;;;;;;5071139;28;20202;-75
2023/01/25 06:41:24;;;;;;;17.10;10.73;;;2.90;99.90;;;;;;5048732;28;20197;-75
2023/01/25 06:43:51;;;;;;;18.63;10.50;;;2.90;99.90;;;;;;5070623;28;20204;-74
2023/01/25 06:46:17;;;;;;;18.23;11.50;;;2.90;99.90;;;;;;5066281;28;20841;-74
2023/01/25 06:48:42;;;;;;;18.20;10.23;;;2.90;99.90;;;;;;5049530;28;20222;-75
2023/01/25 06:51:10;;;;;;;21.53;11.37;;;3.00;99.90;;;;;;5068329;28;20675;-75
2023/01/25 06:53:39;;;;;;;19.77;11.30;;;3.00;99.90;;;;;;5029777;28;20183;-75
2023/01/25 06:56:10;;;;;;;17.53;10.50;;;3.00;99.90;;;;;;5068344;28;20213;-75
2023/01/25 06:58:36;;;;;;;19.27;10.63;;;2.90;99.90;;;;;;5048315;28;20215;-75
2023/01/25 07:01:37;;;;;;;18.00;10.87;;;2.90;99.90;;;;;;5066002;28;20229;-75
2023/01/25 07:04:03;;;;;;;16.33;9.80;;;3.00;99.90;;;;;;4945618;28;20291;-75
2023/01/25 07:06:34;;;;;;;15.73;11.10;;;3.00;99.90;;;;;;5038809;28;20768;-73
2023/01/25 07:09:06;;;;;;;19.77;10.67;;;2.90;99.90;;;;;;5065346;28;20189;-75
2023/01/25 07:11:31;;;;;;;18.83;10.23;;;3.00;99.90;;;;;;5067186;28;20221;-74
2023/01/25 07:13:57;;;;;;;17.77;10.93;;;2.90;99.90;;;;;;5066301;28;20207;-74
2023/01/25 07:16:23;;;;;;;16.93;9.93;;;2.80;99.90;;;;;;5036460;28;20224;-74
2023/01/25 07:18:48;;;;;;;21.43;10.40;;;2.80;99.90;;;;;;5067523;28;20245;-74
2023/01/25 07:21:17;;;;;;;18.37;10.07;;;2.70;99.90;;;;;;5062821;28;20228;-74
2023/01/25 07:23:43;;;;;;;15.60;10.53;;;2.60;99.90;;;;;;5068248;28;20183;-75
2023/01/25 07:26:24;;;;;;;21.47;11.53;;;2.70;99.90;;;;;;5066573;28;20210;-75
2023/01/25 07:28:51;;;;;;;18.27;10.27;;;2.70;99.90;;;;;;5067324;28;20294;-74
2023/01/25 07:31:18;;;;;;;18.60;10.60;;;2.70;99.90;;;;;;5044351;28;20766;-75
2023/01/25 07:33:48;;;;;;;17.27;10.30;;;2.80;99.90;;;;;;5063860;28;20594;-73
2023/01/25 07:36:14;;;;;;;19.80;10.80;;;2.80;99.90;;;;;;5067343;28;20215;-75
2023/01/25 07:38:39;;;;;;;20.13;10.60;;;2.80;99.90;;;;;;5066055;28;20560;-74
2023/01/25 07:41:05;;;;;;;17.20;10.87;;;2.80;99.90;;;;;;5047704;28;20207;-72
2023/01/25 07:43:31;;;;;;;20.00;10.73;;;2.90;99.90;;;;;;5050400;28;20207;-74
2023/01/25 07:46:02;;;;;;;18.97;11.30;;;2.90;99.90;;;;;;5048881;28;20724;-74
2023/01/25 07:48:28;;;;;;;19.27;10.40;;;2.80;99.90;;;;;;5064443;28;20221;-75
2023/01/25 07:53:44;;;;;;;20.80;11.37;;;2.80;99.90;;;;;;5062767;28;20221;-75
2023/01/25 07:56:11;;;;;;;21.83;12.03;;;2.90;99.90;;;;;;5049135;28;20233;-74
2023/01/25 07:58:37;;;;;;;18.03;10.00;;;2.70;99.90;;;;;;5047531;28;20231;-74
2023/01/25 08:01:10;;;;;;;21.47;12.27;;;2.70;99.90;;;;;;5046601;28;20210;-74
2023/01/25 08:03:35;;;;;;;22.00;13.13;;;2.60;99.90;;;;;;5047436;28;20298;-74
2023/01/25 08:06:04;;;;;;;26.07;13.37;;;2.60;99.90;;;;;;5048538;28;20275;-75
2023/01/25 08:08:34;;;;;;;25.10;12.83;;;2.70;99.90;;;;;;5064473;28;20179;-75
2023/01/25 08:11:09;;;;;;;22.80;12.60;;;2.70;99.90;;;;;;5064048;28;20225;-75
2023/01/25 08:13:35;;;;;;;23.00;12.60;;;2.70;99.90;;;;;;5062390;28;20211;-73
2023/01/25 08:16:00;;;;;;;20.57;12.37;;;2.80;99.90;;;;;;5066988;28;20269;-73
2023/01/25 08:18:26;;;;;;;21.83;11.77;;;2.80;99.90;;;;;;5067447;28;20230;-72
2023/01/25 08:20:51;;;;;;;21.27;11.57;;;2.90;99.90;;;;;;5063390;28;20201;-72
2023/01/25 08:23:19;;;;;;;18.83;10.63;;;2.80;99.90;;;;;;5051356;28;20182;-73
2023/01/25 08:25:45;;;;;;;20.13;11.47;;;2.80;99.90;;;;;;5062137;28;20225;-70
2023/01/25 08:28:10;;;;;;;20.97;11.10;;;2.70;99.90;;;;;;5046036;28;20577;-72
2023/01/25 08:30:36;;;;;;;23.53;12.47;;;2.70;99.90;;;;;;5048869;28;20221;-72
2023/01/25 08:33:02;;;;;;;20.80;13.07;;;2.70;99.90;;;;;;5066053;28;20685;-72
2023/01/25 08:35:27;;;;;;;22.03;12.70;;;2.80;99.90;;;;;;5067055;28;20195;-69
2023/01/25 08:37:53;;;;;;;24.07;13.10;;;2.80;99.90;;;;;;5066418;28;20211;-72
2023/01/25 08:40:18;;;;;;;22.27;12.50;;;2.90;99.90;;;;;;5063094;28;20724;-73
2023/01/25 08:42:44;;;;;;;22.33;12.67;;;2.80;99.90;;;;;;5067250;28;20231;-72
2023/01/25 08:45:10;;;;;;;22.87;13.40;;;2.80;99.90;;;;;;5065514;28;20221;-72
2023/01/25 08:47:35;;;;;;;26.53;13.50;;;2.80;99.90;;;;;;5060811;28;20271;-71
2023/01/25 08:50:01;;;;;;;24.80;13.20;;;2.70;99.90;;;;;;5050821;28;20275;-73
2023/01/25 08:52:27;;;;;;;24.17;12.47;;;2.70;99.90;;;;;;5061824;28;20216;-73
2023/01/25 08:54:52;;;;;;;23.57;13.10;;;2.80;99.90;;;;;;5046595;28;20215;-72
2023/01/25 08:57:18;;;;;;;23.10;12.63;;;2.80;99.90;;;;;;5049889;28;20215;-72
2023/01/25 08:59:44;;;;;;;20.50;12.23;;;2.70;99.90;;;;;;5062516;28;20585;-73
2023/01/25 09:02:12;;;;;;;22.37;12.00;;;2.70;99.90;;;;;;5066539;28;20585;-73
2023/01/25 09:04:38;;;;;;;23.80;12.90;;;2.70;99.90;;;;;;5064546;28;20328;-73
2023/01/25 09:07:04;;;;;;;23.13;12.00;;;2.70;99.90;;;;;;5046111;28;20300;-74
2023/01/25 09:09:31;;;;;;;23.50;13.03;;;2.60;99.90;;;;;;5061330;28;20233;-72
2023/01/25 09:11:57;;;;;;;23.70;13.20;;;2.60;99.90;;;;;;5047364;28;20596;-73
2023/01/25 09:14:22;;;;;;;24.00;13.30;;;2.50;99.90;;;;;;5064108;28;20213;-73
2023/01/25 09:16:49;;;;;;;28.63;13.77;;;2.60;99.90;;;;;;5049194;28;20596;-74
2023/01/25 09:19:14;;;;;;;28.10;13.97;;;2.70;99.90;;;;;;5064018;28;20223;-74
2023/01/25 09:21:40;;;;;;;21.27;11.60;;;2.70;99.90;;;;;;5040584;28;20595;-73
2023/01/25 09:24:06;;;;;;;30.37;14.30;;;2.70;99.90;;;;;;5067295;28;20175;-72
2023/01/25 09:26:40;;;;;;;24.03;13.13;;;2.80;99.90;;;;;;5044357;28;20615;-72
2023/01/25 09:29:07;;;;;;;27.17;13.17;;;2.80;99.90;;;;;;5065775;28;20211;-71
2023/01/25 09:31:33;;;;;;;27.10;13.80;;;2.80;99.90;;;;;;5064382;28;20625;-71
2023/01/25 09:33:59;;;;;;;25.23;13.03;;;2.80;99.90;;;;;;5044736;28;20211;-73
2023/01/25 09:36:24;;;;;;;22.97;12.53;;;2.80;99.90;;;;;;5069072;28;20218;-72
2023/01/25 09:38:50;;;;;;;24.00;13.83;;;2.80;99.90;;;;;;5063246;28;20213;-72
2023/01/25 09:41:43;;;;;;;24.20;12.63;;;2.80;99.90;;;;;;5059730;28;20192;-73
2023/01/25 09:44:18;;;;;;;23.83;13.50;;;2.90;99.90;;;;;;5062803;28;20200;-72
2023/01/25 09:46:47;;;;;;;25.50;13.33;;;2.90;99.90;;;;;;5060370;28;20291;-72
2023/01/25 09:49:40;;;;;;;22.43;13.03;;;2.80;99.90;;;;;;5065142;28;20233;-72
2023/01/25 09:52:06;;;;;;;25.77;13.93;;;2.70;99.90;;;;;;5059086;28;20297;-72
2023/01/25 09:54:38;;;;;;;22.33;12.40;;;2.80;99.90;;;;;;5052064;28;20251;-72
2023/01/25 09:57:10;;;;;;;21.27;12.40;;;2.70;99.90;;;;;;5062991;28;20180;-73
2023/01/25 09:59:39;;;;;;;24.90;13.30;;;2.60;99.90;;;;;;5067198;28;20288;-73
2023/01/25 10:02:19;;;;;;;24.80;12.63;;;2.60;99.90;;;;;;5070049;28;20732;-73
2023/01/25 10:04:46;;;;;;;24.97;13.53;;;2.60;99.90;;;;;;5063761;28;20322;-71
2023/01/25 10:07:22;;;;;;;28.63;13.97;;;2.70;99.90;;;;;;5067083;28;20707;-72
2023/01/25 10:10:01;;;;;;;25.40;13.73;;;2.60;99.90;;;;;;5067666;28;20213;-73
2023/01/25 10:12:39;;;;;;;20.80;12.17;;;2.60;99.90;;;;;;5043693;28;20211;-73
2023/01/25 10:15:31;;;;;;;25.07;13.13;;;2.70;99.90;;;;;;5065473;28;20176;-73
2023/01/25 10:18:23;;;;;;;24.80;12.73;;;2.70;99.90;;;;;;5032060;28;20655;-74
2023/01/25 10:20:55;;;;;;;23.00;13.10;;;2.80;99.90;;;;;;5022225;28;20222;-72
2023/01/25 10:23:32;;;;;;;22.83;13.13;;;2.80;99.90;;;;;;5063737;28;20580;-72
2023/01/25 10:26:00;;;;;;;23.07;13.23;;;2.80;99.90;;;;;;5061921;28;20209;-74
2023/01/25 10:28:47;;;;;;;23.17;12.83;;;2.80;99.90;;;;;;5044317;28;20214;-73
2023/01/25 10:31:18;;;;;;;26.80;13.50;;;2.70;99.90;;;;;;5041756;28;20218;-72
2023/01/25 10:33:46;;;;;;;25.83;13.40;;;2.80;99.90;;;;;;5041194;28;20244;-71
2023/01/25 10:36:15;;;;;;;23.47;13.00;;;2.70;99.90;;;;;;5067419;28;20207;-73
2023/01/25 10:38:46;;;;;;;27.20;13.73;;;2.50;99.90;;;;;;5062690;28;20708;-73
2023/01/25 10:41:20;;;;;;;25.30;14.30;;;2.50;99.90;;;;;;5061884;28;20256;-73
2023/01/25 10:43:46;;;;;;;26.77;14.90;;;2.60;99.90;;;;;;5064734;28;20212;-74
2023/01/25 10:46:24;;;;;;;29.90;15.17;;;2.70;99.90;;;;;;5045756;28;20204;-74
2023/01/25 10:48:50;;;;;;;32.73;16.67;;;2.80;99.90;;;;;;5060216;28;20316;-72
2023/01/25 10:51:42;;;;;;;27.03;15.30;;;2.80;99.90;;;;;;5062784;28;20215;-73
2023/01/25 10:54:14;;;;;;;28.47;15.00;;;2.80;99.90;;;;;;5052953;28;20194;-74
2023/01/25 10:56:42;;;;;;;28.33;14.40;;;2.80;99.90;;;;;;5061066;28;20297;-74
2023/01/25 10:59:22;;;;;;;27.57;14.53;;;2.80;99.90;;;;;;5059871;28;20224;-74
2023/01/25 11:01:48;;;;;;;27.27;14.30;;;2.80;99.90;;;;;;5047655;28;20682;-73
2023/01/25 11:04:34;;;;;;;28.43;15.43;;;2.80;99.90;;;;;;5065790;28;20209;-73
2023/01/25 11:07:02;;;;;;;29.03;15.77;;;2.80;99.90;;;;;;5059915;28;20212;-71
2023/01/25 11:09:29;;;;;;;28.83;16.33;;;2.80;99.90;;;;;;5064071;28;20581;-72
2023/01/25 11:12:04;;;;;;;30.73;15.63;;;2.80;99.90;;;;;;5044402;28;20196;-73
2023/01/25 11:14:31;;;;;;;28.37;14.77;;;2.80;99.90;;;;;;5062077;28;20181;-71
2023/01/25 11:17:00;;;;;;;33.17;17.10;;;2.80;99.90;;;;;;5065254;28;20204;-74
2023/01/25 11:19:35;;;;;;;32.43;16.07;;;2.80;99.90;;;;;;5042554;28;20208;-73
2023/01/25 11:22:04;;;;;;;26.50;14.80;;;2.90;99.90;;;;;;5044166;28;20208;-73
2023/01/25 11:24:32;;;;;;;31.10;16.40;;;2.80;99.90;;;;;;5066305;28;20701;-73
2023/01/25 11:27:16;;;;;;;28.23;15.17;;;2.90;99.90;;;;;;5064234;28;20181;-73
2023/01/25 11:29:45;;;;;;;31.83;17.03;;;2.90;99.90;;;;;;5064544;28;20242;-74
2023/01/25 11:32:21;;;;;;;33.73;17.67;;;2.90;99.90;;;;;;5046537;28;20216;-73
2023/01/25 11:34:48;;;;;;;29.97;16.13;;;3.00;99.90;;;;;;5032940;28;20218;-73
2023/01/25 11:37:36;;;;;;;32.53;17.00;;;3.00;99.90;;;;;;5051618;28;20216;-74
2023/01/25 11:40:39;;;;;;;35.53;17.30;;;2.80;99.90;;;;;;5063265;28;20230;-72
2023/01/25 11:43:37;;;;;;;34.60;16.50;;;2.80;99.90;;;;;;5057672;28;20210;-74
2023/01/25 11:46:05;;;;;;;34.77;16.13;;;2.90;99.90;;;;;;5064361;28;20236;-73
2023/01/25 11:48:58;;;;;;;29.07;15.73;;;2.80;99.90;;;;;;5046964;28;20255;-74
2023/01/25 11:51:26;;;;;;;25.80;15.07;;;2.70;99.90;;;;;;5060493;28;20209;-74
2023/01/25 11:54:27;;;;;;;32.20;15.50;;;2.70;99.90;;;;;;5060111;28;20622;-73
2023/01/25 11:57:17;;;;;;;33.20;17.13;;;2.80;99.90;;;;;;5065658;28;20670;-73
2023/01/25 12:00:01;;;;;;;35.37;17.53;;;2.80;99.90;;;;;;5063798;28;20217;-72
2023/01/25 12:02:53;;;;;;;29.30;16.53;;;2.90;99.90;;;;;;5067968;28;20212;-73
2023/01/25 12:05:40;;;;;;;30.93;16.63;;;2.80;99.90;;;;;;5065254;28;20209;-73
2023/01/25 12:08:18;;;;;;;36.87;17.87;;;2.90;99.90;;;;;;5063176;28;20207;-74
2023/01/25 12:10:59;;;;;;;36.33;16.47;;;2.90;99.90;;;;;;5063104;28;20599;-74
2023/01/25 12:13:47;;;;;;;33.77;18.80;;;2.70;99.90;;;;;;5042485;28;20251;-74
2023/01/25 12:16:30;;;;;;;37.17;18.87;;;2.70;99.90;;;;;;5066357;28;20229;-74
2023/01/25 12:18:58;;;;;;;40.00;20.27;;;2.80;99.90;;;;;;5046831;28;20214;-72
2023/01/25 12:21:33;;;;;;;33.93;18.03;;;2.80;99.90;;;;;;5041803;28;20239;-71
2023/01/25 12:24:17;;;;;;;36.23;16.00;;;2.80;99.90;;;;;;5067411;28;20179;-73
2023/01/25 12:27:11;;;;;;;35.63;18.87;;;2.70;99.90;;;;;;5063123;28;20542;-73
2023/01/25 12:29:43;;;;;;;38.47;20.13;;;2.60;99.90;;;;;;5009072;28;20236;-75
2023/01/25 12:32:26;;;;;;;40.60;19.70;;;2.70;99.90;;;;;;5065951;28;20738;-75
2023/01/25 12:35:27;;;;;;;42.00;18.53;;;2.60;99.90;;;;;;5061157;28;20211;-73
2023/01/25 12:37:59;;;;;;;44.73;20.07;;;2.60;99.90;;;;;;5064376;28;20248;-74
2023/01/25 12:40:43;;;;;;;39.50;17.67;;;2.60;99.90;;;;;;5059724;28;20302;-73
2023/01/25 12:43:17;;;;;;;36.27;18.40;;;2.70;99.90;;;;;;5070268;28;20210;-74
2023/01/25 12:45:44;;;;;;;33.50;18.00;;;2.70;99.90;;;;;;5063601;28;20211;-75
2023/01/25 12:48:13;;;;;;;37.53;16.80;;;2.70;99.90;;;;;;5066441;28;20213;-74
2023/01/25 12:50:50;;;;;;;30.47;17.30;;;2.70;99.90;;;;;;5061666;28;20202;-73
2023/01/25 12:53:38;;;;;;;34.57;17.17;;;2.60;99.90;;;;;;5062989;28;20245;-73
2023/01/25 12:56:07;;;;;;;31.97;15.47;;;2.70;99.90;;;;;;5066225;28;20302;-73
2023/01/25 12:58:54;;;;;;;30.70;17.00;;;2.50;99.90;;;;;;5058648;28;20586;-74
2023/01/25 13:01:41;;;;;;;28.47;14.27;;;2.60;99.90;;;;;;5041690;28;20260;-74